createdAt,value
2022-09-07T00:00:39.870Z,98640.97
2022-09-07T00:03:06.572Z,98648.94
2022-09-07T00:05:33.793Z,98643.47
2022-09-07T00:08:00.950Z,98639.56
2022-09-07T00:10:27.820Z,98646.38
2022-09-07T00:12:54.412Z,98641.47
2022-09-07T00:15:20.958Z,98634.63
2022-09-07T00:17:47.517Z,98638.09
2022-09-07T00:20:15.065Z,98632.97
2022-09-07T00:22:41.671Z,98644.00
2022-09-07T00:25:08.982Z,98643.31
2022-09-07T00:27:35.545Z,98648.44
2022-09-07T00:30:02.097Z,98651.63
2022-09-07T00:32:28.669Z,98655.41
2022-09-07T00:34:55.197Z,98644.06
2022-09-07T00:37:21.811Z,98660.78
2022-09-07T00:39:49.468Z,98651.41
2022-09-07T00:42:19.854Z,98658.03
2022-09-07T00:44:58.531Z,98654.41
2022-09-07T00:47:27.699Z,98659.81
2022-09-07T00:50:00.033Z,98656.31
2022-09-07T00:52:29.698Z,98656.81
2022-09-07T00:55:01.907Z,98656.41
2022-09-07T00:57:29.023Z,98660.09
2022-09-07T00:59:57.553Z,98668.28
2022-09-07T01:02:25.709Z,98659.78
2022-09-07T01:05:04.458Z,98665.00
2022-09-07T01:07:33.686Z,98659.69
2022-09-07T01:10:00.962Z,98665.16
2022-09-07T01:12:27.579Z,98669.94
2022-09-07T01:14:55.798Z,98664.28
2022-09-07T01:17:35.441Z,98664.78
2022-09-07T01:20:20.612Z,98670.97
2022-09-07T01:23:02.258Z,98668.22
2022-09-07T01:25:40.814Z,98662.31
2022-09-07T01:28:13.313Z,98648.06
2022-09-07T01:30:49.620Z,98649.72
2022-09-07T01:33:23.011Z,98648.63
2022-09-07T01:36:01.004Z,98655.13
2022-09-07T01:38:36.911Z,98657.28
2022-09-07T01:41:11.439Z,98654.66
2022-09-07T01:43:54.105Z,98653.66
2022-09-07T01:46:52.704Z,98648.06
2022-09-07T01:49:35.557Z,98643.16
2022-09-07T01:52:14.564Z,98637.81
2022-09-07T01:54:46.834Z,98638.91
2022-09-07T01:57:19.093Z,98641.38
2022-09-07T01:59:55.754Z,98638.69
2022-09-07T02:02:29.745Z,98626.53
2022-09-07T02:05:20.964Z,98620.94
2022-09-07T02:08:00.797Z,98616.69
2022-09-07T02:10:56.546Z,98612.25
2022-09-07T02:13:31.280Z,98612.28
2022-09-07T02:16:03.136Z,98607.22
2022-09-07T02:18:34.184Z,98609.63
2022-09-07T02:21:03.081Z,98615.06
2022-09-07T02:23:37.083Z,98606.19
2022-09-07T02:26:07.388Z,98607.09
2022-09-07T02:28:36.573Z,98601.13
2022-09-07T02:31:03.529Z,98594.94
2022-09-07T02:33:30.610Z,98600.50
2022-09-07T02:35:57.846Z,98596.97
2022-09-07T02:38:25.370Z,98597.47
2022-09-07T02:40:53.630Z,98589.69
2022-09-07T02:43:22.204Z,98588.03
2022-09-07T02:46:07.540Z,98582.91
2022-09-07T02:48:42.751Z,98583.19
2022-09-07T02:51:24.569Z,98583.00
2022-09-07T02:54:15.775Z,98574.13
2022-09-07T02:57:14.342Z,98573.41
2022-09-07T03:00:09.921Z,98575.75
2022-09-07T03:02:54.546Z,98576.63
2022-09-07T03:05:29.139Z,98563.22
2022-09-07T03:08:10.770Z,98563.75
2022-09-07T03:10:39.489Z,98563.75
2022-09-07T03:13:06.230Z,98566.22
2022-09-07T03:15:32.908Z,98572.97
2022-09-07T03:17:59.583Z,98564.53
2022-09-07T03:20:26.080Z,98565.63
2022-09-07T03:22:52.893Z,98554.47
2022-09-07T03:25:19.837Z,98560.81
2022-09-07T03:27:46.374Z,98562.50
2022-09-07T03:30:13.496Z,98557.19
2022-09-07T03:32:40.071Z,98555.59
2022-09-07T03:35:08.194Z,98552.56
2022-09-07T03:37:38.756Z,98561.91
2022-09-07T03:40:07.967Z,98548.81
2022-09-07T03:42:34.999Z,98548.94
2022-09-07T03:45:01.767Z,98552.97
2022-09-07T03:47:28.393Z,98548.34
2022-09-07T03:49:54.973Z,98545.06
2022-09-07T03:52:21.643Z,98543.31
2022-09-07T03:54:48.188Z,98542.47
2022-09-07T03:57:14.777Z,98542.56
2022-09-07T03:59:41.280Z,98555.91
2022-09-07T04:02:07.924Z,98554.13
2022-09-07T04:04:34.553Z,98585.31
2022-09-07T04:07:01.140Z,98636.13
2022-09-07T04:09:27.739Z,98621.69
2022-09-07T04:11:54.376Z,98624.78
2022-09-07T04:14:20.973Z,98618.19
2022-09-07T04:16:47.762Z,98616.06
2022-09-07T04:19:14.399Z,98624.31
2022-09-07T04:21:40.984Z,98623.91
2022-09-07T04:24:07.531Z,98609.09
2022-09-07T04:26:35.693Z,98613.16
2022-09-07T04:29:03.006Z,98620.72
2022-09-07T04:31:30.128Z,98620.16
2022-09-07T04:33:56.684Z,98625.84
2022-09-07T04:36:24.846Z,98613.00
2022-09-07T04:38:56.742Z,98612.72
2022-09-07T04:41:23.516Z,98600.91
2022-09-07T04:43:53.428Z,98604.31
2022-09-07T04:46:22.850Z,98604.19
2022-09-07T04:48:55.214Z,98601.34
2022-09-07T04:51:23.240Z,98607.31
2022-09-07T04:53:51.673Z,98608.13
2022-09-07T04:56:19.324Z,98611.59
2022-09-07T04:58:46.835Z,98609.66
2022-09-07T05:01:19.362Z,98604.31
2022-09-07T05:03:46.768Z,98608.72
2022-09-07T05:06:14.323Z,98623.19
2022-09-07T05:08:49.604Z,98633.91
2022-09-07T05:11:16.960Z,98643.16
2022-09-07T05:13:43.933Z,98641.91
2022-09-07T05:16:14.093Z,98635.72
2022-09-07T05:18:41.016Z,98637.53
2022-09-07T05:21:22.168Z,98639.91
2022-09-07T05:23:51.168Z,98639.69
2022-09-07T05:26:18.931Z,98635.84
2022-09-07T05:28:45.646Z,98644.31
2022-09-07T05:31:19.647Z,98643.09
2022-09-07T05:36:39.257Z,98635.63
2022-09-07T05:39:07.019Z,98633.06
2022-09-07T05:41:33.846Z,98624.75
2022-09-07T05:46:46.924Z,98625.47
2022-09-07T05:49:13.441Z,98621.91
2022-09-07T05:51:40.128Z,98616.53
2022-09-07T05:54:06.964Z,98617.50
2022-09-07T05:56:36.595Z,98624.75
2022-09-07T05:59:03.739Z,98613.22
2022-09-07T06:01:30.816Z,98617.63
2022-09-07T06:03:57.890Z,98614.16
2022-09-07T06:06:24.419Z,98609.59
2022-09-07T06:08:53.012Z,98590.69
2022-09-07T06:11:22.237Z,98594.38
2022-09-07T06:13:49.506Z,98588.13
2022-09-07T06:16:18.335Z,98586.19
2022-09-07T06:18:47.445Z,98581.59
2022-09-07T06:21:19.773Z,98578.69
2022-09-07T06:23:47.330Z,98594.06
2022-09-07T06:26:14.985Z,98584.56
2022-09-07T06:28:43.715Z,98579.00
2022-09-07T06:31:16.246Z,98569.66
2022-09-07T06:33:50.454Z,98566.63
2022-09-07T06:36:20.946Z,98569.97
2022-09-07T06:38:48.628Z,98566.91
2022-09-07T06:44:12.297Z,98564.63
2022-09-07T06:49:26.115Z,98588.06
2022-09-07T06:51:52.667Z,98593.31
2022-09-07T06:57:09.074Z,98595.94
2022-09-07T06:59:36.658Z,98602.34
2022-09-07T07:02:03.714Z,98609.84
2022-09-07T07:04:30.274Z,98636.06
2022-09-07T07:06:56.870Z,98674.69
2022-09-07T07:09:23.429Z,98664.69
2022-09-07T07:11:50.264Z,98642.53
2022-09-07T07:14:18.004Z,98616.75
2022-09-07T07:16:44.807Z,98619.06
2022-09-07T07:19:11.570Z,98634.72
2022-09-07T07:22:03.477Z,98630.22
2022-09-07T07:24:24.638Z,98625.16
2022-09-07T07:26:51.234Z,98626.53
2022-09-07T07:29:18.871Z,98621.63
2022-09-07T07:31:47.063Z,98601.59
2022-09-07T07:34:14.005Z,98627.50
2022-09-07T07:36:40.626Z,98648.09
2022-09-07T07:39:07.173Z,98628.56
2022-09-07T07:44:20.933Z,98652.47
2022-09-07T07:46:49.393Z,98625.13
2022-09-07T07:49:16.081Z,98598.25
2022-09-07T07:54:29.323Z,98604.00
2022-09-07T07:56:55.844Z,98588.09
2022-09-07T07:59:22.330Z,98575.97
2022-09-07T08:01:49.238Z,98580.31
2022-09-07T08:04:15.829Z,98586.41
2022-09-07T08:06:42.606Z,98577.28
2022-09-07T08:09:09.375Z,98591.53
2022-09-07T08:11:35.855Z,98590.53
2022-09-07T08:14:05.895Z,98589.59
2022-09-07T08:16:34.127Z,98585.13
2022-09-07T08:19:01.645Z,98584.13
2022-09-07T08:21:28.227Z,98584.81
2022-09-07T08:23:55.760Z,98585.44
2022-09-07T08:26:22.711Z,98586.88
2022-09-07T08:28:49.402Z,98585.69
2022-09-07T08:31:17.118Z,98592.88
2022-09-07T08:33:43.968Z,98583.91
2022-09-07T08:36:19.160Z,98594.00
2022-09-07T08:38:46.058Z,98589.47
2022-09-07T08:41:30.683Z,98594.91
2022-09-07T08:44:10.794Z,98602.44
2022-09-07T08:47:21.874Z,98598.09
2022-09-07T08:49:56.236Z,98598.00
2022-09-07T08:52:26.377Z,98611.50
2022-09-07T08:55:03.947Z,98614.56
2022-09-07T08:57:35.391Z,98611.00
2022-09-07T09:00:07.700Z,98602.09
2022-09-07T09:02:42.437Z,98605.28
2022-09-07T09:05:41.235Z,98599.84
2022-09-07T09:08:29.040Z,98590.69
2022-09-07T09:11:05.965Z,98589.00
2022-09-07T09:13:55.092Z,98590.75
2022-09-07T09:16:44.287Z,98589.13
2022-09-07T09:19:25.775Z,98588.31
2022-09-07T09:22:08.521Z,98595.34
2022-09-07T09:24:38.496Z,98585.88
2022-09-07T09:27:05.144Z,98581.06
2022-09-07T09:29:34.015Z,98581.06
2022-09-07T09:32:20.524Z,98582.72
2022-09-07T09:35:06.383Z,98585.91
2022-09-07T09:37:37.351Z,98589.84
2022-09-07T09:40:06.693Z,98594.81
2022-09-07T09:42:35.366Z,98589.44
2022-09-07T09:45:06.127Z,98594.25
2022-09-07T09:47:36.083Z,98594.72
2022-09-07T09:52:29.175Z,98593.97
2022-09-07T09:53:06.130Z,98593.75
2022-09-07T09:55:36.480Z,98589.06
2022-09-07T10:01:27.094Z,98585.78
2022-09-07T10:06:25.292Z,98577.63
2022-09-07T10:08:58.031Z,98583.94
2022-09-07T10:12:11.099Z,98579.75
2022-09-07T10:14:46.756Z,98586.88
2022-09-07T10:17:31.958Z,98583.41
2022-09-07T10:20:16.036Z,98588.75
2022-09-07T10:22:50.906Z,98587.09
2022-09-07T10:25:37.819Z,98590.22
2022-09-07T10:28:04.347Z,98583.44
2022-09-07T10:30:41.941Z,98579.69
2022-09-07T10:33:20.774Z,98567.69
2022-09-07T10:36:03.103Z,98583.34
2022-09-07T10:38:36.675Z,98583.81
2022-09-07T10:41:07.481Z,98589.22
2022-09-07T10:43:45.664Z,98579.78
2022-09-07T10:46:58.237Z,98575.31
2022-09-07T10:49:25.228Z,98572.94
2022-09-07T10:52:13.916Z,98569.91
2022-09-07T10:54:47.437Z,98574.59
2022-09-07T10:57:39.340Z,98569.00
2022-09-07T11:00:12.514Z,98578.03
2022-09-07T11:03:25.348Z,98570.00
2022-09-07T11:05:54.882Z,98575.75
2022-09-07T11:08:24.344Z,98569.22
2022-09-07T11:11:02.098Z,98573.06
2022-09-07T11:13:49.482Z,98563.94
2022-09-07T11:19:52.551Z,98557.38
2022-09-07T11:22:28.065Z,98557.44
2022-09-07T11:25:31.064Z,98563.19
2022-09-07T11:28:23.209Z,98557.97
2022-09-07T11:31:00.238Z,98549.81
2022-09-07T11:37:09.299Z,98556.91
2022-09-07T11:39:45.026Z,98548.66
2022-09-07T11:45:30.295Z,98545.78
2022-09-07T11:48:19.511Z,98546.59
2022-09-07T11:50:52.007Z,98549.13
2022-09-07T11:53:22.632Z,98546.00
2022-09-07T11:55:56.329Z,98546.97
2022-09-07T11:59:00.477Z,98535.41
2022-09-07T12:01:57.957Z,98534.88
2022-09-07T12:04:40.444Z,98533.66
2022-09-07T12:07:17.539Z,98537.81
2022-09-07T12:09:58.165Z,98538.00
2022-09-07T12:12:43.648Z,98534.19
2022-09-07T12:15:32.777Z,98522.16
2022-09-07T12:18:04.385Z,98520.22
2022-09-07T12:20:44.442Z,98518.03
2022-09-07T12:23:16.953Z,98510.22
2022-09-07T12:25:45.717Z,98507.13
2022-09-07T12:28:21.880Z,98506.50
2022-09-07T12:30:55.746Z,98502.94
2022-09-07T12:33:28.373Z,98499.94
2022-09-07T12:35:57.942Z,98502.03
2022-09-07T12:38:30.253Z,98494.69
2022-09-07T12:41:20.259Z,98494.44
2022-09-07T12:44:04.425Z,98499.34
2022-09-07T12:46:34.692Z,98482.09
2022-09-07T12:49:01.689Z,98490.94
2022-09-07T12:54:38.218Z,98487.09
2022-09-07T12:57:41.167Z,98485.75
2022-09-07T13:00:20.732Z,98474.59
2022-09-07T13:02:56.864Z,98469.81
2022-09-07T13:06:00.980Z,98479.91
2022-09-07T13:08:39.623Z,98477.09
2022-09-07T13:11:27.511Z,98474.41
2022-09-07T13:14:04.742Z,98475.63
2022-09-07T13:17:16.038Z,98471.44
2022-09-07T13:19:46.454Z,98466.25
2022-09-07T13:22:31.280Z,98462.63
2022-09-07T13:25:21.083Z,98465.47
2022-09-07T13:28:03.060Z,98458.53
2022-09-07T13:30:38.437Z,98458.63
2022-09-07T13:33:34.536Z,98463.94
2022-09-07T13:36:03.523Z,98458.22
2022-09-07T13:38:32.933Z,98457.75
2022-09-07T13:41:17.719Z,98463.63
2022-09-07T13:43:49.310Z,98459.25
2022-09-07T13:46:49.052Z,98463.44
2022-09-07T13:49:37.080Z,98452.06
2022-09-07T13:52:18.112Z,98465.03
2022-09-07T13:55:31.662Z,98455.44
2022-09-07T13:58:11.643Z,98444.16
2022-09-07T14:00:54.111Z,98453.44
2022-09-07T14:03:22.531Z,98458.84
2022-09-07T14:05:49.070Z,98474.78
2022-09-07T14:08:29.601Z,98454.28
2022-09-07T14:10:56.086Z,98454.19
2022-09-07T14:13:22.607Z,98450.91
2022-09-07T14:15:50.395Z,98452.75
2022-09-07T14:18:30.250Z,98450.69
2022-09-07T14:20:59.275Z,98448.88
2022-09-07T14:23:32.773Z,98464.22
2022-09-07T14:26:19.267Z,98469.19
2022-09-07T14:29:03.778Z,98470.81
2022-09-07T14:31:31.254Z,98472.56
2022-09-07T14:34:00.357Z,98478.25
2022-09-07T14:36:45.318Z,98484.50
2022-09-07T14:39:15.183Z,98484.31
2022-09-07T14:41:43.208Z,98480.91
2022-09-07T14:44:33.631Z,98466.00
2022-09-07T14:47:20.472Z,98464.66
2022-09-07T14:49:55.944Z,98461.66
2022-09-07T14:52:36.711Z,98463.28
2022-09-07T14:55:19.277Z,98465.91
2022-09-07T14:57:45.842Z,98454.97
2022-09-07T15:00:20.950Z,98451.22
2022-09-07T15:02:47.468Z,98452.41
2022-09-07T15:05:20.589Z,98462.09
2022-09-07T15:07:59.510Z,98458.50
2022-09-07T15:10:28.334Z,98458.81
2022-09-07T15:12:57.600Z,98442.59
2022-09-07T15:15:33.875Z,98439.50
2022-09-07T15:18:08.541Z,98435.47
2022-09-07T15:20:38.641Z,98436.41
2022-09-07T15:23:12.611Z,98424.66
2022-09-07T15:25:40.726Z,98423.47
2022-09-07T15:28:07.853Z,98429.75
2022-09-07T15:30:34.820Z,98426.94
2022-09-07T15:33:01.481Z,98435.16
2022-09-07T15:35:28.019Z,98425.31
2022-09-07T15:38:02.872Z,98441.44
2022-09-07T15:40:56.225Z,98436.03
2022-09-07T15:43:28.563Z,98432.16
2022-09-07T15:45:55.340Z,98430.13
2022-09-07T15:48:25.317Z,98429.81
2022-09-07T15:50:59.813Z,98428.75
2022-09-07T15:56:13.383Z,98422.47
2022-09-07T15:58:40.113Z,98414.94
2022-09-07T16:03:54.571Z,98422.25
2022-09-07T16:06:22.466Z,98416.72
2022-09-07T16:08:51.502Z,98415.66
2022-09-07T16:11:24.309Z,98409.00
2022-09-07T16:14:02.169Z,98415.94
2022-09-07T16:19:22.226Z,98407.66
2022-09-07T16:21:48.890Z,98410.72
2022-09-07T16:24:17.240Z,98414.69
2022-09-07T16:26:43.753Z,98419.41
2022-09-07T16:29:10.326Z,98414.38
2022-09-07T16:31:37.148Z,98411.84
2022-09-07T16:34:04.109Z,98413.78
2022-09-07T16:36:30.827Z,98413.31
2022-09-07T16:38:59.643Z,98412.66
2022-09-07T16:41:29.310Z,98425.41
2022-09-07T16:43:56.195Z,98425.19
2022-09-07T16:46:26.494Z,98418.78
2022-09-07T16:48:53.574Z,98412.56
2022-09-07T16:51:21.827Z,98414.59
2022-09-07T16:53:50.293Z,98410.16
2022-09-07T16:56:19.469Z,98412.50
2022-09-07T16:58:57.466Z,98408.88
2022-09-07T17:01:27.189Z,98412.34
2022-09-07T17:03:54.005Z,98411.47
2022-09-07T17:06:23.547Z,98410.66
2022-09-07T17:08:50.507Z,98409.28
2022-09-07T17:11:29.746Z,98413.94
2022-09-07T17:13:57.993Z,98409.84
2022-09-07T17:16:35.502Z,98407.69
2022-09-07T17:21:53.734Z,98418.91
2022-09-07T17:24:21.185Z,98419.34
2022-09-07T17:26:48.324Z,98420.50
2022-09-07T17:29:15.178Z,98410.06
2022-09-07T17:34:29.932Z,98408.03
2022-09-07T17:36:56.495Z,98400.31
2022-09-07T17:39:23.483Z,98398.22
2022-09-07T17:41:54.299Z,98396.84
2022-09-07T17:44:23.185Z,98416.13
2022-09-07T17:46:49.907Z,98406.66
2022-09-07T17:49:16.917Z,98415.78
2022-09-07T17:51:44.729Z,98408.91
2022-09-07T17:54:16.603Z,98415.84
2022-09-07T17:56:44.626Z,98412.28
2022-09-07T18:01:58.737Z,98407.63
2022-09-07T18:04:25.847Z,98403.28
2022-09-07T18:06:54.116Z,98408.44
2022-09-07T18:09:20.653Z,98413.50
2022-09-07T18:11:49.047Z,98421.38
2022-09-07T18:14:16.585Z,98434.38
2022-09-07T18:16:44.957Z,98440.59
2022-09-07T18:19:12.409Z,98445.50
2022-09-07T18:21:40.936Z,98457.22
2022-09-07T18:24:20.698Z,98460.09
2022-09-07T18:26:50.616Z,98457.78
2022-09-07T18:29:31.193Z,98458.16
2022-09-07T18:32:01.165Z,98464.91
2022-09-07T18:34:28.978Z,98464.97
2022-09-07T18:36:55.827Z,98460.16
2022-09-07T18:39:22.742Z,98469.72
2022-09-07T18:41:49.233Z,98475.19
2022-09-07T18:47:02.396Z,98485.16
2022-09-07T18:49:28.872Z,98490.09
2022-09-07T18:54:41.866Z,98502.63
2022-09-07T18:57:08.684Z,98497.03
2022-09-07T18:59:35.347Z,98493.25
2022-09-07T19:02:04.855Z,98488.81
2022-09-07T19:07:20.518Z,98514.75
2022-09-07T19:09:48.132Z,98511.19
2022-09-07T19:12:15.090Z,98512.94
2022-09-07T19:14:42.226Z,98496.88
2022-09-07T19:17:10.936Z,98488.03
2022-09-07T19:19:38.717Z,98488.63
2022-09-07T19:22:05.986Z,98493.94
2022-09-07T19:24:33.175Z,98485.75
2022-09-07T19:27:00.838Z,98486.38
2022-09-07T19:29:28.040Z,98472.56
2022-09-07T19:32:07.805Z,98497.31
2022-09-07T19:34:45.531Z,98500.00
2022-09-07T19:37:13.259Z,98500.19
2022-09-07T19:39:39.838Z,98509.00
2022-09-07T19:42:07.048Z,98508.28
2022-09-07T19:44:34.010Z,98513.41
2022-09-07T19:47:00.838Z,98507.53
2022-09-07T19:49:28.202Z,98513.94
2022-09-07T19:51:54.817Z,98511.91
2022-09-07T19:54:21.451Z,98504.19
2022-09-07T19:56:47.944Z,98510.75
2022-09-07T19:59:14.619Z,98513.94
2022-09-07T20:01:45.953Z,98501.72
2022-09-07T20:04:19.678Z,98501.81
2022-09-07T20:06:48.070Z,98497.31
2022-09-07T20:09:14.641Z,98489.78
2022-09-07T20:11:46.073Z,98480.53
2022-09-07T20:14:13.745Z,98477.13
2022-09-07T20:16:41.681Z,98488.72
2022-09-07T20:19:08.445Z,98496.59
2022-09-07T20:21:36.869Z,98498.34
2022-09-07T20:24:03.964Z,98503.63
2022-09-07T20:26:32.230Z,98491.34
2022-09-07T20:29:16.766Z,98481.16
2022-09-07T20:31:46.839Z,98484.47
2022-09-07T20:34:13.662Z,98477.41
2022-09-07T20:36:40.514Z,98472.63
2022-09-07T20:39:07.080Z,98471.50
2022-09-07T20:41:34.284Z,98467.16
2022-09-07T20:44:02.686Z,98465.28
2022-09-07T20:46:30.276Z,98464.84
2022-09-07T20:48:57.259Z,98460.81
2022-09-07T20:51:23.847Z,98460.13
2022-09-07T20:53:50.906Z,98455.78
2022-09-07T20:56:18.740Z,98444.72
2022-09-07T20:58:46.646Z,98447.28
2022-09-07T21:01:15.704Z,98447.44
2022-09-07T21:03:54.244Z,98454.91
2022-09-07T21:06:22.453Z,98445.63
2022-09-07T21:08:49.886Z,98449.63
2022-09-07T21:11:22.848Z,98452.03
2022-09-07T21:13:59.260Z,98455.63
2022-09-07T21:16:26.211Z,98454.84
2022-09-07T21:18:55.268Z,98462.53
2022-09-07T21:21:23.191Z,98464.47
2022-09-07T21:23:55.715Z,98452.97
2022-09-07T21:26:23.143Z,98450.25
2022-09-07T21:29:01.541Z,98448.06
2022-09-07T21:31:29.861Z,98446.06
2022-09-07T21:33:58.693Z,98455.47
2022-09-07T21:36:25.985Z,98450.09
2022-09-07T21:38:53.046Z,98449.94
2022-09-07T21:41:21.260Z,98442.63
2022-09-07T21:43:47.727Z,98445.91
2022-09-07T21:46:17.414Z,98448.94
2022-09-07T21:48:45.557Z,98441.75
2022-09-07T21:51:13.608Z,98441.47
2022-09-07T21:53:40.722Z,98442.28
2022-09-07T21:56:11.146Z,98439.50
2022-09-07T21:58:38.503Z,98436.59
2022-09-07T22:01:12.504Z,98431.63
2022-09-07T22:03:40.384Z,98430.63
2022-09-07T22:06:08.317Z,98430.19
2022-09-07T22:08:36.304Z,98432.81
2022-09-07T22:11:09.366Z,98428.81
2022-09-07T22:13:36.537Z,98427.31
2022-09-07T22:16:04.461Z,98427.81
2022-09-07T22:18:31.569Z,98434.28
2022-09-07T22:21:12.774Z,98430.00
2022-09-07T22:23:42.641Z,98422.41
2022-09-07T22:26:09.758Z,98426.47
2022-09-07T22:28:37.087Z,98427.44
2022-09-07T22:31:12.454Z,98432.66
2022-09-07T22:33:40.007Z,98422.78
2022-09-07T22:36:11.413Z,98419.84
2022-09-07T22:38:38.745Z,98410.78
2022-09-07T22:41:10.468Z,98408.47
2022-09-07T22:43:37.005Z,98407.03
2022-09-07T22:46:03.986Z,98401.09
2022-09-07T22:48:30.643Z,98399.38
2022-09-07T22:50:58.941Z,98397.63
2022-09-07T22:53:30.351Z,98393.81
2022-09-07T22:55:57.246Z,98399.56
2022-09-07T22:58:23.893Z,98398.53
2022-09-07T23:00:51.466Z,98394.41
2022-09-07T23:03:18.521Z,98390.91
2022-09-07T23:05:45.000Z,98391.03
2022-09-07T23:08:11.877Z,98388.91
2022-09-07T23:10:39.084Z,98385.66
2022-09-07T23:13:05.929Z,98380.38
2022-09-07T23:15:35.937Z,98377.31
2022-09-07T23:18:02.383Z,98380.28
2022-09-07T23:20:28.961Z,98375.44
2022-09-07T23:22:55.443Z,98371.69
2022-09-07T23:25:22.658Z,98370.06
2022-09-07T23:27:49.117Z,98363.72
2022-09-07T23:30:15.658Z,98370.84
2022-09-07T23:32:42.272Z,98364.69
2022-09-07T23:35:11.690Z,98372.81
2022-09-07T23:37:40.173Z,98372.44
2022-09-07T23:40:08.560Z,98369.59
2022-09-07T23:42:35.094Z,98375.38
2022-09-07T23:45:01.549Z,98367.34
2022-09-07T23:47:28.054Z,98370.56
2022-09-07T23:49:54.582Z,98369.94
2022-09-07T23:52:21.075Z,98373.06
2022-09-07T23:54:47.561Z,98377.78
2022-09-07T23:57:14.103Z,98371.94
2022-09-07T23:59:40.596Z,98363.66
